Time;durP1;ratioP1;P1;durP2;ratioP2;P2;SDS_P1;SDS_P2;PMS_P1;PMS_P2;Temp;Humidity;BMP_temperature;BMP_pressure;BME280_temperature;BME280_humidity;BME280_pressure;Samples;Min_cycle;Max_cycle;Signal;HPM_P1;HPM_P2
2022/05/10 00:01:00;;;;;;;6.23;3.07;;;15.50;99.90;;;;;;4960056;28;20225;-74
2022/05/10 00:03:45;;;;;;;6.20;3.50;;;15.50;99.90;;;;;;4959359;28;20305;-75
2022/05/10 00:06:37;;;;;;;6.70;4.17;;;15.50;99.90;;;;;;4960426;28;20197;-76
2022/05/10 00:09:27;;;;;;;7.63;4.93;;;15.50;99.90;;;;;;4963174;28;20229;-75
2022/05/10 00:12:12;;;;;;;10.03;4.17;;;15.40;99.90;;;;;;4958055;28;20257;-75
2022/05/10 00:14:56;;;;;;;6.37;3.70;;;15.30;99.90;;;;;;4961231;28;20256;-75
2022/05/10 00:17:42;;;;;;;4.57;3.43;;;15.30;99.90;;;;;;4962075;28;20209;-76
2022/05/10 00:20:27;;;;;;;6.50;3.50;;;15.20;99.90;;;;;;4950187;28;20185;-76
2022/05/10 00:23:12;;;;;;;4.43;3.40;;;15.10;99.90;;;;;;4954803;28;20216;-77
2022/05/10 00:25:56;;;;;;;7.10;3.50;;;15.10;99.90;;;;;;4959107;28;20338;-75
2022/05/10 00:28:40;;;;;;;5.03;3.37;;;15.00;99.90;;;;;;4962065;28;20256;-75
2022/05/10 00:31:25;;;;;;;5.17;3.43;;;15.00;99.90;;;;;;4957292;28;20192;-75
2022/05/10 00:34:09;;;;;;;3.90;3.50;;;15.00;99.90;;;;;;4959609;28;20264;-75
2022/05/10 00:36:54;;;;;;;3.97;3.43;;;14.90;99.90;;;;;;4954845;28;20701;-75
2022/05/10 00:39:38;;;;;;;5.53;3.60;;;14.90;99.90;;;;;;4958748;28;20797;-75
2022/05/10 00:42:35;;;;;;;7.17;3.53;;;14.90;99.90;;;;;;4953281;28;20616;-75
2022/05/10 00:45:27;;;;;;;4.37;3.57;;;14.80;99.90;;;;;;4972544;28;20197;-77
2022/05/10 00:48:17;;;;;;;5.00;3.63;;;14.80;99.90;;;;;;4965916;28;20242;-76
2022/05/10 00:51:25;;;;;;;8.17;3.70;;;14.80;99.90;;;;;;4953046;28;20208;-74
2022/05/10 00:54:31;;;;;;;6.73;3.77;;;14.70;99.90;;;;;;4966928;28;20201;-75
2022/05/10 00:57:50;;;;;;;6.27;3.77;;;14.60;99.90;;;;;;4954761;28;20310;-75
2022/05/10 01:00:35;;;;;;;8.80;4.23;;;14.60;99.90;;;;;;4956561;28;20213;-74
2022/05/10 01:03:36;;;;;;;6.87;3.87;;;14.60;99.90;;;;;;4955406;28;20222;-75
2022/05/10 01:06:27;;;;;;;6.80;3.70;;;14.50;99.90;;;;;;4957599;28;20200;-76
2022/05/10 01:09:43;;;;;;;7.63;3.90;;;14.50;99.90;;;;;;4954731;28;20246;-75
2022/05/10 01:12:34;;;;;;;7.10;4.23;;;14.50;99.90;;;;;;4959922;28;20209;-75
2022/05/10 01:15:23;;;;;;;8.30;3.83;;;14.50;99.90;;;;;;4955901;28;20194;-76
2022/05/10 01:18:07;;;;;;;5.97;3.63;;;14.40;99.90;;;;;;4950325;28;20258;-76
2022/05/10 01:20:57;;;;;;;6.80;4.00;;;14.40;99.90;;;;;;4954496;28;20217;-76
2022/05/10 01:24:10;;;;;;;5.53;3.83;;;14.40;99.90;;;;;;4957345;28;20212;-75
2022/05/10 01:26:54;;;;;;;9.73;3.90;;;14.30;99.90;;;;;;4968922;28;20264;-76
2022/05/10 01:29:49;;;;;;;7.47;5.00;;;14.30;99.90;;;;;;4953256;28;20184;-75
2022/05/10 01:36:04;;;;;;;7.73;4.33;;;14.20;99.90;;;;;;4965824;28;20279;-76
2022/05/10 01:38:58;;;;;;;6.57;4.03;;;14.20;99.90;;;;;;4956020;28;20266;-75
2022/05/10 01:41:51;;;;;;;11.40;4.30;;;14.20;99.90;;;;;;4955349;28;20327;-77
2022/05/10 01:44:59;;;;;;;7.20;4.47;;;14.20;99.90;;;;;;4954788;28;20197;-74
2022/05/10 01:47:48;;;;;;;5.87;4.20;;;14.20;99.90;;;;;;4952400;28;20218;-74
2022/05/10 01:50:44;;;;;;;5.80;4.27;;;14.10;99.90;;;;;;4971902;28;20326;-76
2022/05/10 01:53:30;;;;;;;5.80;4.20;;;14.10;99.90;;;;;;4955125;28;20221;-76
2022/05/10 01:56:22;;;;;;;7.47;4.77;;;14.10;99.90;;;;;;4955764;28;20210;-76
2022/05/10 01:59:06;;;;;;;8.57;4.60;;;14.10;99.90;;;;;;4954888;28;20186;-76
2022/05/10 02:01:53;;;;;;;6.23;4.60;;;14.00;99.90;;;;;;4957583;28;20261;-75
2022/05/10 02:04:40;;;;;;;7.40;4.63;;;14.00;99.90;;;;;;4958757;28;20587;-76
2022/05/10 02:07:26;;;;;;;8.83;5.53;;;14.00;99.90;;;;;;4951554;28;20193;-77
2022/05/10 02:10:25;;;;;;;8.87;6.13;;;13.90;99.90;;;;;;4958084;28;20197;-76
2022/05/10 02:13:14;;;;;;;8.63;6.00;;;13.90;99.90;;;;;;4963028;28;20217;-77
2022/05/10 02:16:03;;;;;;;8.47;6.10;;;13.80;99.90;;;;;;4960043;28;20598;-76
2022/05/10 02:18:59;;;;;;;9.03;6.30;;;13.80;99.90;;;;;;4949762;28;20261;-75
2022/05/10 02:21:54;;;;;;;10.63;6.00;;;13.80;99.90;;;;;;4966553;28;20268;-76
2022/05/10 02:24:41;;;;;;;10.93;6.27;;;13.80;99.90;;;;;;4956771;28;20186;-76
2022/05/10 02:27:34;;;;;;;10.80;5.83;;;13.70;99.90;;;;;;4953937;28;20688;-76
2022/05/10 02:30:22;;;;;;;8.03;5.50;;;13.70;99.90;;;;;;4955491;28;20200;-76
2022/05/10 02:33:09;;;;;;;10.37;6.67;;;13.70;99.90;;;;;;4958060;28;20225;-76
2022/05/10 02:35:56;;;;;;;11.33;6.63;;;13.70;99.90;;;;;;4965351;28;20206;-76
2022/05/10 02:38:41;;;;;;;9.10;6.60;;;13.70;99.90;;;;;;4983232;28;20249;-76
2022/05/10 02:41:25;;;;;;;7.63;6.57;;;13.70;99.90;;;;;;4955407;28;20216;-76
2022/05/10 02:44:09;;;;;;;7.97;6.47;;;13.70;99.90;;;;;;4952163;28;20193;-76
2022/05/10 02:46:55;;;;;;;9.27;7.00;;;13.80;99.90;;;;;;4956192;28;20181;-76
2022/05/10 02:49:40;;;;;;;9.33;6.37;;;13.70;99.90;;;;;;4956609;28;20188;-76
2022/05/10 02:52:26;;;;;;;10.67;6.73;;;13.70;99.90;;;;;;4951564;28;20252;-76
2022/05/10 02:55:19;;;;;;;9.70;6.50;;;13.70;99.90;;;;;;4949843;28;20233;-76
2022/05/10 02:58:11;;;;;;;6.50;5.90;;;13.80;99.90;;;;;;4955342;28;20196;-76
2022/05/10 03:01:02;;;;;;;8.70;6.17;;;13.80;99.90;;;;;;4959339;28;20233;-77
2022/05/10 03:03:48;;;;;;;6.90;6.20;;;13.70;99.90;;;;;;4961004;28;20260;-76
2022/05/10 03:06:33;;;;;;;9.97;6.93;;;13.80;99.90;;;;;;4952327;28;20229;-76
2022/05/10 03:09:17;;;;;;;7.80;6.00;;;13.70;99.90;;;;;;4973769;28;20185;-76
2022/05/10 03:12:06;;;;;;;10.87;6.83;;;13.70;99.90;;;;;;4956822;28;20256;-76
2022/05/10 03:14:53;;;;;;;10.50;6.80;;;13.70;99.90;;;;;;4967097;28;20627;-77
2022/05/10 03:17:37;;;;;;;8.47;6.30;;;13.70;99.90;;;;;;4965209;28;20208;-76
2022/05/10 03:20:21;;;;;;;8.73;6.47;;;13.70;99.90;;;;;;4959694;28;20193;-77
2022/05/10 03:23:06;;;;;;;13.40;7.10;;;13.70;99.90;;;;;;4966002;28;20216;-76
2022/05/10 03:25:51;;;;;;;9.70;7.07;;;13.70;99.90;;;;;;4972765;28;20233;-74
2022/05/10 03:28:36;;;;;;;8.83;7.30;;;13.70;99.90;;;;;;4957982;28;20196;-75
2022/05/10 03:31:22;;;;;;;9.93;7.03;;;13.70;99.90;;;;;;4960338;28;20284;-75
2022/05/10 03:37:10;;;;;;;7.63;6.47;;;13.70;99.90;;;;;;4966073;28;20214;-74
2022/05/10 03:39:54;;;;;;;9.67;6.63;;;13.70;99.90;;;;;;4972278;28;20246;-77
2022/05/10 03:42:49;;;;;;;10.30;6.80;;;13.70;99.90;;;;;;4956902;28;20240;-76
2022/05/10 03:45:33;;;;;;;11.33;7.13;;;13.60;99.90;;;;;;4957358;28;20193;-75
2022/05/10 03:48:18;;;;;;;8.93;6.70;;;13.60;99.90;;;;;;4967518;28;20192;-76
2022/05/10 03:51:02;;;;;;;8.63;7.10;;;13.60;99.90;;;;;;4960375;28;20197;-75
2022/05/10 03:53:47;;;;;;;11.57;7.27;;;13.50;99.90;;;;;;4956815;28;20583;-75
2022/05/10 03:56:31;;;;;;;11.80;6.83;;;13.50;99.90;;;;;;4974647;28;20205;-75
2022/05/10 03:59:16;;;;;;;12.60;7.10;;;13.50;99.90;;;;;;4949850;28;20198;-75
2022/05/10 04:02:00;;;;;;;9.87;7.10;;;13.50;99.90;;;;;;4967932;28;20232;-76
2022/05/10 04:04:44;;;;;;;8.57;6.80;;;13.50;99.90;;;;;;4967670;28;20225;-75
2022/05/10 04:07:28;;;;;;;11.73;7.13;;;13.50;99.90;;;;;;4957302;28;20693;-75
2022/05/10 04:10:14;;;;;;;9.03;6.73;;;13.50;99.90;;;;;;4958696;28;20193;-75
2022/05/10 04:12:58;;;;;;;13.60;7.13;;;13.50;99.90;;;;;;4955877;28;20220;-75
2022/05/10 04:15:42;;;;;;;9.93;7.67;;;13.50;99.90;;;;;;4965893;28;20226;-75
2022/05/10 04:18:27;;;;;;;11.27;7.60;;;13.50;99.90;;;;;;4961878;28;20182;-76
2022/05/10 04:21:12;;;;;;;11.67;7.63;;;13.40;99.90;;;;;;4956455;28;20229;-75
2022/05/10 04:23:56;;;;;;;10.47;7.47;;;13.50;99.90;;;;;;4954856;28;20225;-76
2022/05/10 04:26:40;;;;;;;11.43;7.30;;;13.40;99.90;;;;;;4957978;28;20196;-76
2022/05/10 04:29:25;;;;;;;9.10;6.60;;;13.40;99.90;;;;;;4949376;28;20253;-75
2022/05/10 04:32:09;;;;;;;11.27;7.73;;;13.40;99.90;;;;;;4951163;28;20635;-76
2022/05/10 04:34:53;;;;;;;8.93;7.00;;;13.40;99.90;;;;;;4956561;28;20236;-76
2022/05/10 04:37:38;;;;;;;10.87;6.90;;;13.50;99.90;;;;;;4957843;28;20333;-75
2022/05/10 04:43:26;;;;;;;12.07;7.40;;;13.50;99.90;;;;;;4972963;28;20267;-76
2022/05/10 04:46:10;;;;;;;13.57;7.23;;;13.60;99.90;;;;;;4962973;28;20262;-75
2022/05/10 04:48:54;;;;;;;14.93;7.07;;;13.60;99.90;;;;;;4965133;28;20197;-75
2022/05/10 04:51:39;;;;;;;14.10;7.43;;;13.70;99.90;;;;;;4960504;28;20198;-75
2022/05/10 04:54:23;;;;;;;14.30;8.20;;;13.70;99.90;;;;;;4958218;28;20189;-76
2022/05/10 04:57:08;;;;;;;19.13;8.37;;;13.80;99.90;;;;;;4968710;28;20196;-76
2022/05/10 04:59:52;;;;;;;12.53;7.37;;;14.00;99.90;;;;;;4957725;28;20208;-76
2022/05/10 05:02:37;;;;;;;19.10;8.13;;;14.00;99.90;;;;;;4957074;28;20225;-76
2022/05/10 05:05:21;;;;;;;11.13;7.20;;;14.10;99.90;;;;;;4981450;28;20240;-78
2022/05/10 05:08:07;;;;;;;11.20;7.53;;;14.10;99.90;;;;;;4945031;28;20202;-77
2022/05/10 05:10:52;;;;;;;11.37;7.30;;;14.20;99.90;;;;;;4960585;28;20205;-77
2022/05/10 05:13:37;;;;;;;13.40;7.37;;;14.30;99.90;;;;;;4968515;28;20288;-77
2022/05/10 05:16:21;;;;;;;11.07;7.73;;;14.30;99.90;;;;;;4964987;28;20232;-77
2022/05/10 05:19:06;;;;;;;13.63;8.10;;;14.30;99.90;;;;;;4961637;28;20201;-77
2022/05/10 05:21:50;;;;;;;9.30;7.80;;;14.40;99.90;;;;;;4961640;28;20233;-78
2022/05/10 05:24:35;;;;;;;12.93;7.67;;;14.40;99.90;;;;;;4961006;28;20249;-77
2022/05/10 05:27:19;;;;;;;10.77;7.77;;;14.50;99.90;;;;;;4959760;28;20240;-77
2022/05/10 05:30:04;;;;;;;18.80;7.90;;;14.50;99.90;;;;;;4968333;28;20201;-77
2022/05/10 05:32:49;;;;;;;10.67;7.83;;;14.60;99.90;;;;;;4967352;28;20210;-77
2022/05/10 05:35:34;;;;;;;12.13;8.43;;;14.70;99.90;;;;;;4955805;28;20686;-77
2022/05/10 05:38:18;;;;;;;12.57;8.50;;;14.70;99.90;;;;;;4953944;28;20274;-76
2022/05/10 05:41:02;;;;;;;13.73;8.67;;;14.80;99.90;;;;;;4965262;28;20257;-76
2022/05/10 05:43:46;;;;;;;18.73;9.40;;;14.80;99.90;;;;;;4966958;28;20290;-74
2022/05/10 05:46:31;;;;;;;13.63;10.03;;;14.90;99.90;;;;;;4955446;28;20204;-74
2022/05/10 05:49:15;;;;;;;11.67;9.90;;;14.90;99.90;;;;;;4953783;28;20206;-74
2022/05/10 05:52:01;;;;;;;13.97;8.83;;;15.00;99.90;;;;;;4957361;28;20331;-73
2022/05/10 05:54:46;;;;;;;12.10;9.30;;;15.10;99.90;;;;;;4966502;28;20200;-74
2022/05/10 05:57:31;;;;;;;9.67;8.53;;;15.20;99.90;;;;;;4953263;28;20220;-74
2022/05/10 06:00:22;;;;;;;12.93;9.80;;;15.30;99.90;;;;;;4957601;28;20220;-73
2022/05/10 06:03:07;;;;;;;17.83;9.33;;;15.50;99.90;;;;;;4964883;28;20222;-74
2022/05/10 06:05:51;;;;;;;14.63;9.87;;;15.60;99.90;;;;;;4950884;28;20674;-74
2022/05/10 06:08:35;;;;;;;16.37;10.03;;;15.70;99.90;;;;;;4958064;28;20189;-73
2022/05/10 06:11:19;;;;;;;13.50;10.60;;;15.80;99.90;;;;;;4958189;28;20249;-73
2022/05/10 06:14:04;;;;;;;14.30;9.77;;;15.90;99.90;;;;;;4958913;28;20193;-73
2022/05/10 06:16:48;;;;;;;12.83;9.93;;;16.10;99.90;;;;;;4969358;28;20551;-73
2022/05/10 06:19:36;;;;;;;15.67;10.47;;;16.20;99.90;;;;;;4955663;28;20297;-73
2022/05/10 06:22:20;;;;;;;15.87;11.07;;;16.30;99.90;;;;;;4956389;28;20236;-73
2022/05/10 06:25:05;;;;;;;13.10;9.87;;;16.40;99.90;;;;;;4954615;28;20637;-74
2022/05/10 06:27:50;;;;;;;11.23;9.67;;;16.50;99.90;;;;;;4963428;28;20188;-73
2022/05/10 06:30:34;;;;;;;13.03;10.83;;;16.70;99.90;;;;;;4963934;28;20241;-73
2022/05/10 06:33:19;;;;;;;15.80;10.80;;;16.80;99.90;;;;;;4959006;28;20217;-73
2022/05/10 06:36:03;;;;;;;16.57;10.73;;;16.90;99.90;;;;;;4957418;28;20240;-73
2022/05/10 06:38:47;;;;;;;17.27;11.60;;;17.00;99.90;;;;;;4958435;28;20193;-73
2022/05/10 06:41:32;;;;;;;21.67;11.17;;;17.10;99.90;;;;;;4974883;28;20241;-73
2022/05/10 06:44:17;;;;;;;14.83;11.07;;;17.30;99.90;;;;;;4951749;28;20201;-73
2022/05/10 06:47:00;;;;;;;15.23;11.30;;;17.40;99.90;;;;;;4969480;28;20224;-73
2022/05/10 06:49:45;;;;;;;12.57;10.67;;;17.50;99.90;;;;;;4950811;28;20197;-73
2022/05/10 06:52:30;;;;;;;14.23;10.70;;;17.70;99.90;;;;;;4972096;28;20228;-73
2022/05/10 06:55:15;;;;;;;15.30;10.53;;;17.80;99.90;;;;;;4951295;28;20193;-73
2022/05/10 06:58:02;;;;;;;15.20;10.90;;;17.90;99.90;;;;;;4963205;28;20190;-73
2022/05/10 07:00:47;;;;;;;20.07;10.80;;;18.10;99.90;;;;;;4953760;28;20229;-73
2022/05/10 07:03:33;;;;;;;14.33;10.47;;;18.20;99.90;;;;;;4959008;28;20285;-73
2022/05/10 07:06:22;;;;;;;14.17;10.33;;;18.30;99.90;;;;;;4982964;28;20192;-73
2022/05/10 07:09:07;;;;;;;15.33;10.87;;;18.30;99.90;;;;;;4967453;28;20554;-73
2022/05/10 07:11:51;;;;;;;13.53;10.53;;;18.40;99.90;;;;;;4962860;28;20198;-73
2022/05/10 07:14:35;;;;;;;13.53;9.90;;;18.50;99.90;;;;;;4944163;28;20257;-74
2022/05/10 07:17:19;;;;;;;14.88;10.63;;;18.50;99.90;;;;;;4956250;28;20213;-73
2022/05/10 07:20:04;;;;;;;16.37;10.13;;;18.60;99.90;;;;;;4958995;28;20240;-73
2022/05/10 07:22:49;;;;;;;16.17;9.53;;;18.60;99.90;;;;;;4956252;28;20634;-73
2022/05/10 07:25:33;;;;;;;18.17;9.50;;;18.70;99.90;;;;;;4954933;28;20585;-72
2022/05/10 07:28:17;;;;;;;12.27;9.73;;;18.80;99.90;;;;;;4953832;28;20265;-73
2022/05/10 07:31:02;;;;;;;14.20;9.38;;;18.80;99.90;;;;;;4956544;28;20732;-74
2022/05/10 07:33:46;;;;;;;16.27;9.13;;;18.90;99.90;;;;;;4969270;28;20273;-73
2022/05/10 07:36:33;;;;;;;13.50;9.32;;;18.90;99.90;;;;;;4951608;28;20186;-73
2022/05/10 07:39:18;;;;;;;13.30;9.38;;;19.10;99.90;;;;;;4955482;28;20241;-73
2022/05/10 07:42:04;;;;;;;16.73;9.60;;;19.10;99.90;;;;;;4955418;28;20234;-73
2022/05/10 07:44:51;;;;;;;12.57;8.73;;;19.20;99.90;;;;;;4972469;28;20253;-73
2022/05/10 07:47:35;;;;;;;14.68;8.98;;;19.30;99.90;;;;;;4960915;28;20185;-73
2022/05/10 07:50:20;;;;;;;11.77;8.82;;;19.30;99.90;;;;;;4973624;28;20201;-73
2022/05/10 07:53:07;;;;;;;12.48;8.15;;;19.40;99.90;;;;;;4951395;28;20297;-73
2022/05/10 07:55:52;;;;;;;14.13;8.65;;;19.50;99.90;;;;;;4968541;28;20595;-73
2022/05/10 07:58:36;;;;;;;12.95;8.02;;;19.60;99.90;;;;;;4972105;28;20197;-72
2022/05/10 08:01:20;;;;;;;14.18;8.13;;;19.70;99.90;;;;;;4959139;28;20225;-73
2022/05/10 08:04:05;;;;;;;13.50;7.50;;;19.70;99.90;;;;;;4974340;28;20196;-72
2022/05/10 08:06:50;;;;;;;13.15;7.38;;;19.80;99.90;;;;;;4958886;28;20253;-73
2022/05/10 08:09:35;;;;;;;14.88;7.60;;;19.90;99.90;;;;;;4973327;28;20193;-74
2022/05/10 08:12:19;;;;;;;13.55;7.40;;;20.00;99.90;;;;;;4965232;28;20602;-73
2022/05/10 08:15:04;;;;;;;16.23;7.03;;;20.10;99.90;;;;;;4955490;29;20179;-74
2022/05/10 08:17:48;;;;;;;9.40;6.88;;;20.20;99.90;;;;;;4959608;28;20221;-73
2022/05/10 08:20:33;;;;;;;14.50;7.13;;;20.30;99.90;;;;;;4959126;28;20281;-74
2022/05/10 08:23:21;;;;;;;12.70;6.93;;;20.40;99.90;;;;;;4953659;28;20217;-73
2022/05/10 08:26:07;;;;;;;13.65;6.93;;;20.50;99.90;;;;;;4960679;28;20198;-73
2022/05/10 08:28:52;;;;;;;12.20;6.97;;;20.60;99.90;;;;;;4959354;28;20240;-73
2022/05/10 08:31:37;;;;;;;8.82;6.13;;;20.70;99.90;;;;;;4979738;28;20184;-73
2022/05/10 08:34:21;;;;;;;8.73;5.70;;;20.80;99.90;;;;;;4978427;28;20228;-74
2022/05/10 08:37:06;;;;;;;10.15;6.03;;;20.90;99.90;;;;;;4957945;28;20189;-73
2022/05/10 08:39:51;;;;;;;11.23;6.53;;;21.10;99.90;;;;;;4941857;28;20226;-74
2022/05/10 08:42:46;;;;;;;10.55;6.20;;;21.20;99.90;;;;;;4958775;28;20225;-73
2022/05/10 08:45:37;;;;;;;9.65;5.70;;;21.30;99.90;;;;;;4958434;28;20222;-73
2022/05/10 08:48:26;;;;;;;8.63;5.28;;;21.40;99.90;;;;;;4973040;28;20248;-73
2022/05/10 08:51:10;;;;;;;9.20;5.13;;;21.50;99.90;;;;;;4972017;28;20198;-74
2022/05/10 08:53:55;;;;;;;11.27;5.47;;;21.60;99.90;;;;;;4966438;28;20256;-74
2022/05/10 08:56:50;;;;;;;11.43;6.05;;;21.70;99.90;;;;;;4954624;28;20317;-73
2022/05/10 08:59:41;;;;;;;13.20;4.65;;;21.80;99.90;;;;;;4973445;28;20269;-73
2022/05/10 09:02:41;;;;;;;7.97;4.85;;;22.00;99.90;;;;;;4951337;28;20256;-73
2022/05/10 09:05:28;;;;;;;9.20;5.18;;;22.00;99.90;;;;;;4955042;28;20201;-73
2022/05/10 09:08:29;;;;;;;8.52;4.47;;;22.10;99.90;;;;;;4964029;28;20205;-73
2022/05/10 09:11:14;;;;;;;5.03;4.45;;;22.30;99.90;;;;;;4978449;28;20261;-73
2022/05/10 09:14:00;;;;;;;5.72;4.53;;;22.50;99.90;;;;;;4949147;28;20243;-76
2022/05/10 09:16:44;;;;;;;8.77;4.90;;;22.50;99.90;;;;;;4963886;28;20268;-75
2022/05/10 09:19:40;;;;;;;9.05;4.32;;;22.60;99.90;;;;;;4973004;28;20193;-74
2022/05/10 09:22:41;;;;;;;11.88;4.70;;;22.60;99.90;;;;;;4958112;28;20236;-75
2022/05/10 09:25:39;;;;;;;7.40;4.13;;;22.60;99.90;;;;;;4958042;28;20201;-75
2022/05/10 09:28:26;;;;;;;7.75;4.05;;;22.60;99.90;;;;;;4960452;28;20212;-75
2022/05/10 09:34:47;;;;;;;7.35;4.05;;;22.70;99.90;;;;;;4965588;28;20228;-75
2022/05/10 09:37:36;;;;;;;6.85;4.15;;;22.80;99.90;;;;;;4956533;28;20244;-75
2022/05/10 09:40:46;;;;;;;8.50;3.83;;;22.90;99.90;;;;;;4983635;28;20220;-75
2022/05/10 09:43:32;;;;;;;6.55;3.83;;;23.00;99.90;;;;;;4951738;28;20225;-74
2022/05/10 09:46:29;;;;;;;7.70;4.15;;;23.00;99.90;;;;;;4954739;28;20253;-75
2022/05/10 09:49:31;;;;;;;5.93;3.80;;;23.10;99.90;;;;;;4956071;28;20697;-75
2022/05/10 09:52:22;;;;;;;16.13;4.40;;;23.20;99.90;;;;;;4957363;28;20264;-75
2022/05/10 09:55:09;;;;;;;8.80;4.47;;;23.30;99.90;;;;;;4953334;28;20222;-75
2022/05/10 09:57:57;;;;;;;10.32;3.83;;;23.40;99.90;;;;;;4956715;28;20661;-75
2022/05/10 10:00:45;;;;;;;6.50;3.97;;;23.40;99.90;;;;;;4959817;28;20197;-75
2022/05/10 10:03:32;;;;;;;5.32;3.72;;;23.40;99.90;;;;;;4956538;28;20217;-75
2022/05/10 10:06:19;;;;;;;5.20;4.05;;;23.50;99.90;;;;;;4954550;28;20209;-74
2022/05/10 10:09:03;;;;;;;6.68;4.13;;;23.50;99.90;;;;;;4975077;28;20225;-75
2022/05/10 10:11:47;;;;;;;5.47;3.80;;;23.50;99.90;;;;;;4943016;29;20261;-74
2022/05/10 10:14:42;;;;;;;5.38;3.92;;;23.60;99.90;;;;;;4963466;28;20200;-75
2022/05/10 10:17:30;;;;;;;8.73;3.58;;;23.70;99.90;;;;;;4957639;28;20697;-76
2022/05/10 10:20:34;;;;;;;6.18;3.95;;;23.80;99.90;;;;;;4961773;28;20714;-76
2022/05/10 10:23:27;;;;;;;6.35;4.18;;;24.00;99.90;;;;;;4968352;28;20229;-75
2022/05/10 10:26:20;;;;;;;6.72;3.30;;;24.20;99.90;;;;;;4975186;28;20217;-76
2022/05/10 10:29:35;;;;;;;9.10;3.92;;;24.20;99.90;;;;;;4953838;29;20234;-75
2022/05/10 10:32:51;;;;;;;11.48;4.10;;;24.20;99.90;;;;;;4956532;28;20224;-76
2022/05/10 10:35:44;;;;;;;9.88;4.18;;;24.20;99.90;;;;;;4970408;28;20244;-75
2022/05/10 10:38:45;;;;;;;5.95;4.35;;;24.30;99.90;;;;;;4957253;28;20235;-75
2022/05/10 10:41:57;;;;;;;7.60;4.30;;;24.30;99.90;;;;;;4957896;28;20272;-76
2022/05/10 10:44:50;;;;;;;9.63;4.22;;;24.40;99.90;;;;;;4952682;28;20233;-75
2022/05/10 10:48:13;;;;;;;7.93;4.25;;;24.40;99.90;;;;;;4948053;28;20198;-76
2022/05/10 10:50:58;;;;;;;8.23;4.78;;;24.50;99.90;;;;;;4951468;28;20190;-76
2022/05/10 10:53:45;;;;;;;8.32;3.97;;;24.50;99.90;;;;;;4953190;28;20217;-76
2022/05/10 10:56:55;;;;;;;11.77;4.55;;;24.60;99.90;;;;;;4973542;28;20193;-75
2022/05/10 11:00:09;;;;;;;10.75;5.13;;;24.60;99.90;;;;;;4953823;28;20370;-75
2022/05/10 11:03:18;;;;;;;8.93;5.00;;;24.60;99.90;;;;;;4941654;28;20228;-76
2022/05/10 11:06:18;;;;;;;6.25;4.50;;;24.60;99.90;;;;;;4950239;28;20693;-75
2022/05/10 11:09:18;;;;;;;9.25;4.45;;;24.50;99.90;;;;;;4956526;28;20240;-75
2022/05/10 11:12:34;;;;;;;5.00;4.40;;;24.60;99.90;;;;;;4967112;28;20220;-76
2022/05/10 11:15:30;;;;;;;8.38;4.45;;;24.60;99.90;;;;;;4968132;28;20213;-76
2022/05/10 11:18:53;;;;;;;6.32;3.75;;;24.70;99.90;;;;;;4977593;28;20184;-76
2022/05/10 11:22:02;;;;;;;5.65;4.00;;;24.70;99.90;;;;;;4953456;28;20233;-76
2022/05/10 11:25:08;;;;;;;13.15;4.50;;;24.70;99.90;;;;;;4953701;28;20196;-76
2022/05/10 11:27:52;;;;;;;5.50;3.58;;;24.70;99.90;;;;;;4954607;28;20271;-75
2022/05/10 11:30:58;;;;;;;9.27;4.07;;;24.80;99.90;;;;;;4980060;28;20247;-74
2022/05/10 11:34:03;;;;;;;5.47;3.90;;;24.80;99.90;;;;;;4941708;29;20210;-74
2022/05/10 11:36:50;;;;;;;6.65;3.47;;;24.80;99.90;;;;;;4956876;28;20240;-75
2022/05/10 11:40:05;;;;;;;5.82;3.78;;;24.70;99.90;;;;;;4975308;28;20249;-75
2022/05/10 11:43:04;;;;;;;4.70;3.50;;;24.70;99.90;;;;;;4947897;28;20289;-75
2022/05/10 11:46:15;;;;;;;4.57;3.55;;;24.80;99.90;;;;;;4950919;28;20220;-75
2022/05/10 11:49:28;;;;;;;8.45;3.78;;;24.80;99.90;;;;;;4941334;29;20190;-75
2022/05/10 11:52:21;;;;;;;3.97;3.50;;;24.90;99.90;;;;;;4942588;28;20213;-75
2022/05/10 11:55:36;;;;;;;8.98;4.07;;;24.90;99.90;;;;;;4956810;28;20230;-76
2022/05/10 11:58:23;;;;;;;4.68;3.95;;;25.00;99.90;;;;;;4957352;28;20341;-75
2022/05/10 12:01:47;;;;;;;7.68;3.80;;;25.00;99.90;;;;;;4960383;28;20217;-75
2022/05/10 12:04:34;;;;;;;8.20;4.05;;;25.00;99.90;;;;;;4960327;28;20201;-76
2022/05/10 12:07:23;;;;;;;11.30;4.57;;;25.00;99.90;;;;;;4959582;28;20202;-76
2022/05/10 12:10:30;;;;;;;10.93;4.03;;;24.90;99.90;;;;;;4974916;28;20174;-75
2022/05/10 12:22:59;;;;;;;7.10;4.10;;;24.90;99.90;;;;;;4974666;28;20223;-75
2022/05/10 12:25:59;;;;;;;6.47;3.70;;;24.90;99.90;;;;;;4959812;28;20197;-75
2022/05/10 12:28:48;;;;;;;7.57;3.97;;;24.90;99.90;;;;;;4960176;28;20240;-76
2022/05/10 12:31:35;;;;;;;4.78;3.95;;;25.00;99.90;;;;;;4960037;28;20241;-76
2022/05/10 12:34:58;;;;;;;6.75;3.60;;;25.00;99.90;;;;;;4979230;28;20244;-75
2022/05/10 12:37:48;;;;;;;6.47;3.60;;;25.10;99.90;;;;;;4957076;28;20226;-76
2022/05/10 12:40:34;;;;;;;5.72;3.17;;;25.20;99.90;;;;;;4994444;28;20185;-75
2022/05/10 12:43:28;;;;;;;7.45;3.53;;;25.20;99.90;;;;;;4956994;28;20218;-75
2022/05/10 12:46:22;;;;;;;5.50;3.30;;;25.20;99.90;;;;;;4954728;29;20638;-75
2022/05/10 12:49:34;;;;;;;6.72;3.40;;;25.20;99.90;;;;;;4958434;28;20665;-75
2022/05/10 12:52:24;;;;;;;8.68;3.50;;;25.30;99.90;;;;;;4973971;28;20255;-75
2022/05/10 12:55:16;;;;;;;4.07;3.35;;;25.30;99.90;;;;;;4959801;28;20272;-75
2022/05/10 12:58:08;;;;;;;6.93;3.30;;;25.30;99.90;;;;;;4953601;28;20248;-75
2022/05/10 13:00:56;;;;;;;7.15;3.47;;;25.20;99.90;;;;;;4959549;28;20650;-76
2022/05/10 13:03:46;;;;;;;5.72;3.25;;;25.20;99.90;;;;;;4974599;28;20692;-75
2022/05/10 13:06:52;;;;;;;6.05;3.05;;;25.20;99.90;;;;;;4975260;28;20232;-75
2022/05/10 13:09:38;;;;;;;7.22;3.28;;;25.20;99.90;;;;;;4955177;29;20667;-75
2022/05/10 13:12:27;;;;;;;11.85;4.18;;;25.20;99.90;;;;;;4957273;28;21017;-75
2022/05/10 13:15:16;;;;;;;5.78;3.40;;;25.30;99.90;;;;;;4958706;28;20259;-75
2022/05/10 13:18:00;;;;;;;6.03;3.00;;;25.30;99.90;;;;;;4964521;28;20736;-75
2022/05/10 13:20:48;;;;;;;7.97;3.08;;;25.20;99.90;;;;;;4973334;28;20205;-76
2022/05/10 13:23:34;;;;;;;5.07;2.97;;;25.20;99.90;;;;;;4958717;28;20248;-74
2022/05/10 13:26:19;;;;;;;4.97;3.13;;;25.10;99.90;;;;;;4972051;28;20472;-75
2022/05/10 13:29:03;;;;;;;3.30;2.95;;;25.10;99.90;;;;;;4956447;28;20566;-74
2022/05/10 13:31:47;;;;;;;7.10;2.95;;;25.10;99.90;;;;;;4957528;28;20277;-75
2022/05/10 13:34:31;;;;;;;7.05;3.17;;;25.10;99.90;;;;;;4968916;28;20226;-75
2022/05/10 13:37:26;;;;;;;6.13;2.90;;;25.20;99.90;;;;;;4938817;29;20225;-75
2022/05/10 13:40:22;;;;;;;6.03;2.60;;;25.30;99.90;;;;;;4939152;29;20203;-75
2022/05/10 13:43:23;;;;;;;10.88;3.53;;;25.30;99.90;;;;;;4959937;28;20264;-75
2022/05/10 13:46:11;;;;;;;10.13;3.28;;;25.30;99.90;;;;;;4958658;28;20201;-74
2022/05/10 13:49:02;;;;;;;6.85;3.03;;;25.40;99.90;;;;;;4986784;28;20181;-74
2022/05/10 13:51:53;;;;;;;8.45;3.25;;;25.40;99.90;;;;;;4951264;28;20273;-74
2022/05/10 13:54:39;;;;;;;7.25;3.45;;;25.40;99.90;;;;;;4974153;28;20269;-74
2022/05/10 13:57:30;;;;;;;9.13;2.83;;;25.40;99.90;;;;;;4973258;28;20247;-74
2022/05/10 14:00:35;;;;;;;5.32;3.38;;;25.40;99.90;;;;;;4939914;28;20226;-74
2022/05/10 14:03:21;;;;;;;5.38;3.05;;;25.40;99.90;;;;;;4970100;28;20297;-74
2022/05/10 14:06:12;;;;;;;5.80;2.83;;;25.30;99.90;;;;;;4973183;28;20248;-74
2022/05/10 14:08:57;;;;;;;6.03;2.83;;;25.30;99.90;;;;;;4989101;28;20196;-75
2022/05/10 14:11:43;;;;;;;5.82;3.13;;;25.40;99.90;;;;;;4973491;28;20199;-74
2022/05/10 14:14:31;;;;;;;3.47;3.17;;;25.40;99.90;;;;;;4976500;28;20201;-74
2022/05/10 14:17:15;;;;;;;5.22;3.03;;;25.50;99.90;;;;;;4975815;28;20182;-74
2022/05/10 14:20:11;;;;;;;6.07;3.42;;;25.50;99.90;;;;;;4956228;28;20194;-74
2022/05/10 14:22:59;;;;;;;5.22;3.20;;;25.40;99.90;;;;;;4950614;29;20230;-75
2022/05/10 14:25:53;;;;;;;7.93;3.33;;;25.40;99.90;;;;;;4952719;28;20269;-76
2022/05/10 14:28:49;;;;;;;5.47;2.92;;;25.40;99.90;;;;;;4962234;28;20217;-75
2022/05/10 14:31:35;;;;;;;5.10;3.13;;;25.50;99.90;;;;;;4955876;28;20235;-75
2022/05/10 14:34:50;;;;;;;6.97;3.00;;;25.50;99.90;;;;;;4957297;28;20252;-74
2022/05/10 14:37:42;;;;;;;8.40;2.83;;;25.50;99.90;;;;;;4959675;28;20253;-75
2022/05/10 14:40:40;;;;;;;9.45;3.20;;;25.40;99.90;;;;;;4977282;28;20636;-75
2022/05/10 14:43:39;;;;;;;5.35;3.00;;;25.40;99.90;;;;;;4957833;28;20264;-75
2022/05/10 14:46:32;;;;;;;5.85;2.90;;;25.40;99.90;;;;;;4957794;28;20265;-75
2022/05/10 14:49:35;;;;;;;10.85;3.13;;;25.30;99.90;;;;;;4951301;29;20734;-75
2022/05/10 14:52:34;;;;;;;7.05;2.75;;;25.10;99.90;;;;;;4949880;28;20260;-75
2022/05/10 14:55:31;;;;;;;6.47;3.25;;;25.10;99.90;;;;;;4960539;28;20289;-75
2022/05/10 14:58:30;;;;;;;6.32;3.65;;;25.00;99.90;;;;;;4976206;28;20185;-75
2022/05/10 15:01:33;;;;;;;7.57;3.67;;;25.00;99.90;;;;;;4962219;28;20289;-74
2022/05/10 15:04:17;;;;;;;7.30;3.70;;;25.00;99.90;;;;;;4961977;28;20169;-74